Time;durP1;ratioP1;P1;durP2;ratioP2;P2;SDS_P1;SDS_P2;PMS_P1;PMS_P2;Temp;Humidity;BMP_temperature;BMP_pressure;BME280_temperature;BME280_humidity;BME280_pressure;Samples;Min_cycle;Max_cycle;Signal;HPM_P1;HPM_P2
2023/07/14 00:01:16;;;;;;;;;;;18.40;99.90;;;;;;5023724;28;19921;-67
2023/07/14 00:03:42;;;;;;;;;;;18.40;99.90;;;;;;5024636;28;19921;-67
2023/07/14 00:06:10;;;;;;;;;;;18.40;99.90;;;;;;5024479;28;19921;-68
2023/07/14 00:08:39;;;;;;;;;;;18.30;99.90;;;;;;5024747;28;19926;-68
2023/07/14 00:11:11;;;;;;;;;;;18.20;99.90;;;;;;5023944;28;19925;-67
2023/07/14 00:13:37;;;;;;;;;;;18.20;99.90;;;;;;5024629;28;19921;-66
2023/07/14 00:16:09;;;;;;;;;;;18.00;99.90;;;;;;5024333;28;19988;-67
2023/07/14 00:18:36;;;;;;;;;;;18.00;99.90;;;;;;5024592;28;19921;-67
2023/07/14 00:21:03;;;;;;;;;;;17.90;99.90;;;;;;5023809;28;19928;-67
2023/07/14 00:23:30;;;;;;;;;;;17.80;99.90;;;;;;5024184;28;19922;-68
2023/07/14 00:25:56;;;;;;;;;;;17.80;99.90;;;;;;5024225;28;19984;-67
2023/07/14 00:28:24;;;;;;;;;;;17.80;99.90;;;;;;5024137;28;19925;-67
2023/07/14 00:30:51;;;;;;;;;;;17.80;99.90;;;;;;5023687;28;19922;-67
2023/07/14 00:33:19;;;;;;;;;;;17.80;99.90;;;;;;5024006;28;19928;-67
2023/07/14 00:35:47;;;;;;;;;;;17.70;99.90;;;;;;5023628;28;19922;-68
2023/07/14 00:38:14;;;;;;;;;;;17.70;99.90;;;;;;5023865;28;19944;-67
2023/07/14 00:40:41;;;;;;;;;;;17.60;99.90;;;;;;5023576;28;20004;-67
2023/07/14 00:43:12;;;;;;;;;;;17.50;99.90;;;;;;5023862;28;20004;-67
2023/07/14 00:45:41;;;;;;;;;;;17.50;99.90;;;;;;5023993;28;19921;-68
2023/07/14 00:48:10;;;;;;;;;;;17.40;99.90;;;;;;5024032;28;19929;-67
2023/07/14 00:50:38;;;;;;;;;;;17.40;99.90;;;;;;5025755;28;21450;-67
2023/07/14 00:53:07;;;;;;;;;;;17.30;99.90;;;;;;5043827;28;20160;-67
2023/07/14 00:55:39;;;;;;;;;;;17.30;99.90;;;;;;5043494;28;19928;-67
2023/07/14 00:58:13;;;;;;;;;;;17.30;99.90;;;;;;5043400;28;19921;-67
2023/07/14 01:00:41;;;;;;;;;;;17.30;99.90;;;;;;5042661;28;20324;-67
2023/07/14 01:03:14;;;;;;;;;;;17.20;99.90;;;;;;5043413;28;20208;-68
2023/07/14 01:05:41;;;;;;;;;;;17.20;99.90;;;;;;5043477;28;19927;-67
2023/07/14 01:08:08;;;;;;;;;;;17.20;99.90;;;;;;5043233;28;19927;-68
2023/07/14 01:10:34;;;;;;;;;;;17.10;99.90;;;;;;5042801;28;19984;-67
2023/07/14 01:13:03;;;;;;;;;;;17.10;99.90;;;;;;5043510;28;19957;-67
2023/07/14 01:15:29;;;;;;;;;;;17.10;99.90;;;;;;5043411;28;19921;-67
2023/07/14 01:17:57;;;;;;;;;;;17.00;99.90;;;;;;5043465;28;19928;-67
2023/07/14 01:20:24;;;;;;;;;;;17.00;99.90;;;;;;5042760;28;19963;-67
2023/07/14 01:23:00;;;;;;;;;;;17.00;99.90;;;;;;5043386;28;19964;-67
2023/07/14 01:25:33;;;;;;;;;;;17.00;99.90;;;;;;5043286;28;20136;-67
2023/07/14 01:28:03;;;;;;;;;;;16.90;99.90;;;;;;5043085;28;19921;-68
2023/07/14 01:30:30;;;;;;;;;;;16.90;99.90;;;;;;5042400;28;19936;-67
2023/07/14 01:32:56;;;;;;;;;;;16.80;99.90;;;;;;5043263;28;19921;-67
2023/07/14 01:35:28;;;;;;;;;;;16.80;99.90;;;;;;5042736;28;19984;-67
2023/07/14 01:37:55;;;;;;;;;;;16.80;99.90;;;;;;5043093;28;19928;-68
2023/07/14 01:40:24;;;;;;;;;;;16.80;99.90;;;;;;5039933;28;19921;-67
2023/07/14 01:42:53;;;;;;;;;;;16.70;99.90;;;;;;5043371;28;19943;-67
2023/07/14 01:45:23;;;;;;;;;;;16.70;99.90;;;;;;5043162;28;20000;-67
2023/07/14 01:47:51;;;;;;;;;;;16.60;99.90;;;;;;5043261;28;19928;-67
2023/07/14 01:50:20;;;;;;;;;;;16.60;99.90;;;;;;5042590;28;19925;-67
2023/07/14 01:52:49;;;;;;;;;;;16.50;99.90;;;;;;5043398;28;19956;-68
2023/07/14 01:55:18;;;;;;;;;;;16.50;99.90;;;;;;5042677;28;20205;-67
2023/07/14 01:57:46;;;;;;;;;;;16.40;99.90;;;;;;5042740;28;19971;-66
2023/07/14 02:00:13;;;;;;;;;;;16.40;99.90;;;;;;5042116;28;19933;-67
2023/07/14 02:02:42;;;;;;;;;;;16.40;99.90;;;;;;5042975;28;19928;-68
2023/07/14 02:05:18;;;;;;;;;;;16.40;99.90;;;;;;5042470;28;19921;-67
2023/07/14 02:07:46;;;;;;;;;;;16.30;99.90;;;;;;5043130;28;19921;-67
2023/07/14 02:10:13;;;;;;;;;;;16.30;99.90;;;;;;5044554;28;19929;-68
2023/07/14 02:12:46;;;;;;;;;;;16.30;99.90;;;;;;5046845;28;19959;-67
2023/07/14 02:15:17;;;;;;;;;;;16.30;99.90;;;;;;5046570;28;19949;-67
2023/07/14 02:17:45;;;;;;;;;;;16.20;99.90;;;;;;5046635;28;19960;-67
2023/07/14 02:20:16;;;;;;;;;;;16.10;99.90;;;;;;5045768;28;20013;-67
2023/07/14 02:22:42;;;;;;;;;;;16.10;99.90;;;;;;5046418;28;19984;-67
2023/07/14 02:25:10;;;;;;;;;;;16.10;99.90;;;;;;5046156;28;20236;-66
2023/07/14 02:27:37;;;;;;;;;;;16.00;99.90;;;;;;5046120;28;20235;-67
2023/07/14 02:30:10;;;;;;;;;;;16.00;99.90;;;;;;5045602;28;20024;-67
2023/07/14 02:32:38;;;;;;;;;;;16.00;99.90;;;;;;5046391;28;19992;-67
2023/07/14 02:35:12;;;;;;;;;;;16.00;99.90;;;;;;5046246;28;19999;-67
2023/07/14 02:37:51;;;;;;;;;;;15.90;99.90;;;;;;5046026;28;19921;-67
2023/07/14 02:40:18;;;;;;;;;;;15.90;99.90;;;;;;5045303;28;19992;-68
2023/07/14 02:42:44;;;;;;;;;;;15.80;99.90;;;;;;5045787;28;20229;-67
2023/07/14 02:45:12;;;;;;;;;;;15.80;99.90;;;;;;5045664;28;19992;-67
2023/07/14 02:47:40;;;;;;;;;;;15.80;99.90;;;;;;5045622;28;19927;-67
2023/07/14 02:50:09;;;;;;;;;;;15.80;99.90;;;;;;5045493;28;19921;-67
2023/07/14 02:52:35;;;;;;;;;;;15.70;99.90;;;;;;5044502;28;19928;-67
2023/07/14 02:55:02;;;;;;;;;;;15.70;99.90;;;;;;5044315;28;19921;-67
2023/07/14 02:57:29;;;;;;;;;;;15.60;99.90;;;;;;5044686;28;19925;-67
2023/07/14 02:59:56;;;;;;;;;;;15.60;99.90;;;;;;5043943;28;19927;-68
2023/07/14 03:02:24;;;;;;;;;;;15.60;99.90;;;;;;5044472;28;20003;-68
2023/07/14 03:04:50;;;;;;;;;;;15.50;99.90;;;;;;5044722;28;19921;-66
2023/07/14 03:07:18;;;;;;;;;;;15.50;99.90;;;;;;5044444;28;19952;-67
2023/07/14 03:09:45;;;;;;;;;;;15.40;99.90;;;;;;5040985;28;19921;-67
2023/07/14 03:12:11;;;;;;;;;;;15.30;99.90;;;;;;5043790;28;19928;-67
2023/07/14 03:14:38;;;;;;;;;;;15.30;99.90;;;;;;5044466;28;19988;-67
2023/07/14 03:17:05;;;;;;;;;;;15.30;99.90;;;;;;5044318;28;19921;-67
2023/07/14 03:19:31;;;;;;;;;;;15.30;99.90;;;;;;5044379;28;20112;-67
2023/07/14 03:21:58;;;;;;;;;;;15.20;99.90;;;;;;5042554;28;19988;-67
2023/07/14 03:24:26;;;;;;;;;;;15.20;99.90;;;;;;5044236;28;19943;-67
2023/07/14 03:26:52;;;;;;;;;;;15.10;99.90;;;;;;5038092;28;19921;-67
2023/07/14 03:29:19;;;;;;;;;;;15.10;99.90;;;;;;5024508;28;19944;-67
2023/07/14 03:31:46;;;;;;;;;;;15.00;99.90;;;;;;5023839;28;19927;-67
2023/07/14 03:34:13;;;;;;;;;;;15.00;99.90;;;;;;5024459;28;19992;-67
2023/07/14 03:36:39;;;;;;;;;;;14.90;99.90;;;;;;5024229;28;20164;-68
2023/07/14 03:39:19;;;;;;;;;;;14.90;99.90;;;;;;5024063;28;19922;-67
2023/07/14 03:41:47;;;;;;;;;;;14.80;99.90;;;;;;5023344;28;20235;-67
2023/07/14 03:44:13;;;;;;;;;;;14.80;99.90;;;;;;5024343;28;19922;-68
2023/07/14 03:46:40;;;;;;;;;;;14.80;99.90;;;;;;5024126;28;20236;-67
2023/07/14 03:49:07;;;;;;;;;;;14.80;99.90;;;;;;5023868;28;19985;-67
2023/07/14 03:51:33;;;;;;;;;;;14.80;99.90;;;;;;4956081;28;1934053;-67
2023/07/14 03:54:00;;;;;;;;;;;14.80;99.90;;;;;;5025040;28;19963;-67
2023/07/14 03:56:27;;;;;;;;;;;14.80;99.90;;;;;;5035465;28;19921;-68
2023/07/14 03:58:55;;;;;;;;;;;14.80;99.90;;;;;;5044617;28;19921;-67
2023/07/14 04:01:21;;;;;;;;;;;14.80;99.90;;;;;;5044009;28;19988;-67
2023/07/14 04:03:48;;;;;;;;;;;14.80;99.90;;;;;;5044099;28;19952;-67
2023/07/14 04:06:15;;;;;;;;;;;14.70;99.90;;;;;;5044234;28;20221;-67
2023/07/14 04:08:44;;;;;;;;;;;14.70;99.90;;;;;;5041688;28;20259;-67
2023/07/14 04:11:12;;;;;;;;;;;14.70;99.90;;;;;;5043521;28;19921;-67
2023/07/14 04:13:39;;;;;;;;;;;14.70;99.90;;;;;;5044421;28;19921;-67
2023/07/14 04:16:08;;;;;;;;;;;14.70;99.90;;;;;;5043961;28;20235;-67
2023/07/14 04:18:34;;;;;;;;;;;14.70;99.90;;;;;;5044225;28;19921;-67
2023/07/14 04:21:01;;;;;;;;;;;14.70;99.90;;;;;;5043711;28;19980;-67
2023/07/14 04:23:28;;;;;;;;;;;14.70;99.90;;;;;;5044066;28;19984;-68
2023/07/14 04:25:54;;;;;;;;;;;14.60;99.90;;;;;;5044041;28;19956;-67
2023/07/14 04:28:21;;;;;;;;;;;14.70;99.90;;;;;;5043893;28;19921;-67
2023/07/14 04:30:53;;;;;;;;;;;14.70;99.90;;;;;;5043476;28;19927;-67
2023/07/14 04:33:21;;;;;;;;;;;14.70;99.90;;;;;;5043466;28;19988;-67
2023/07/14 04:35:48;;;;;;;;;;;14.70;99.90;;;;;;5043734;28;20171;-67
2023/07/14 04:38:15;;;;;;;;;;;14.80;99.90;;;;;;5043867;28;19996;-68
2023/07/14 04:40:41;;;;;;;;;;;14.80;99.90;;;;;;5043268;28;19989;-68
2023/07/14 04:43:08;;;;;;;;;;;14.70;99.90;;;;;;5043973;28;20008;-67
2023/07/14 04:45:37;;;;;;;;;;;14.80;99.90;;;;;;5043808;28;20096;-68
2023/07/14 04:48:04;;;;;;;;;;;14.80;99.90;;;;;;5043940;28;19927;-67
2023/07/14 04:50:32;;;;;;;;;;;14.80;99.90;;;;;;5043074;28;19984;-68
2023/07/14 04:52:58;;;;;;;;;;;14.80;99.90;;;;;;5043887;28;19921;-67
2023/07/14 04:55:26;;;;;;;;;;;14.80;99.90;;;;;;5043418;28;20208;-68
2023/07/14 04:57:53;;;;;;;;;;;14.80;99.90;;;;;;5043750;28;19996;-68
2023/07/14 05:00:33;;;;;;;;;;;14.70;99.90;;;;;;5042041;28;19992;-67
2023/07/14 05:03:00;;;;;;;;;;;14.70;99.90;;;;;;5043062;28;19928;-68
2023/07/14 05:05:26;;;;;;;;;;;14.70;99.90;;;;;;5043410;28;19921;-68
2023/07/14 05:07:55;;;;;;;;;;;14.80;99.90;;;;;;5040644;28;20152;-68
2023/07/14 05:10:23;;;;;;;;;;;14.90;99.90;;;;;;5042727;28;19921;-68
2023/07/14 05:12:51;;;;;;;;;;;15.00;99.90;;;;;;5043274;28;19921;-67
2023/07/14 05:15:17;;;;;;;;;;;15.00;99.90;;;;;;5042860;28;20259;-68
2023/07/14 05:17:48;;;;;;;;;;;15.10;99.90;;;;;;5043295;28;19928;-68
2023/07/14 05:20:16;;;;;;;;;;;15.20;99.90;;;;;;5040216;28;19921;-68
2023/07/14 05:22:46;;;;;;;;;;;15.20;99.90;;;;;;5043477;28;19929;-68
2023/07/14 05:25:15;;;;;;;;;;;15.30;99.90;;;;;;5040142;28;19963;-68
2023/07/14 05:27:44;;;;;;;;;;;15.30;99.90;;;;;;5026323;28;19927;-70
2023/07/14 05:30:15;;;;;;;;;;;15.30;99.90;;;;;;5029269;28;19921;-68
2023/07/14 05:32:43;;;;;;;;;;;15.40;99.90;;;;;;5048483;28;19921;-70
2023/07/14 05:35:13;;;;;;;;;;;15.50;99.90;;;;;;5046990;28;19921;-68
2023/07/14 05:37:40;;;;;;;;;;;15.60;99.90;;;;;;5046607;28;19928;-68
2023/07/14 05:40:10;;;;;;;;;;;15.70;99.90;;;;;;5042915;28;19993;-68
2023/07/14 05:42:38;;;;;;;;;;;15.70;99.90;;;;;;5042499;28;19975;-69
2023/07/14 05:45:05;;;;;;;;;;;15.80;99.90;;;;;;5044675;28;20154;-68
2023/07/14 05:47:34;;;;;;;;;;;15.90;99.90;;;;;;5045544;28;19992;-68
2023/07/14 05:50:01;;;;;;;;;;;15.90;99.90;;;;;;5042722;28;20264;-68
2023/07/14 05:52:27;;;;;;;;;;;16.00;99.90;;;;;;5045203;28;19921;-68
2023/07/14 05:54:54;;;;;;;;;;;16.00;99.90;;;;;;5046913;28;19921;-68
2023/07/14 05:57:21;;;;;;;;;;;16.10;99.90;;;;;;5046743;28;19927;-68
2023/07/14 05:59:49;;;;;;;;;;;16.20;99.90;;;;;;5046423;28;20221;-67
2023/07/14 06:02:16;;;;;;;;;;;16.30;99.90;;;;;;5046283;28;19931;-68
2023/07/14 06:04:42;;;;;;;;;;;16.30;99.90;;;;;;5046300;28;19925;-68
2023/07/14 06:07:09;;;;;;;;;;;16.40;99.90;;;;;;5046835;28;19921;-68
2023/07/14 06:09:37;;;;;;;;;;;16.40;99.90;;;;;;5046839;28;20205;-68
2023/07/14 06:12:04;;;;;;;;;;;16.50;99.90;;;;;;5045818;28;19921;-67
2023/07/14 06:14:31;;;;;;;;;;;16.60;99.90;;;;;;5046165;28;19968;-68
2023/07/14 06:16:59;;;;;;;;;;;16.70;99.90;;;;;;5034202;28;19939;-68
2023/07/14 06:19:27;;;;;;;;;;;16.80;99.90;;;;;;5026412;28;19988;-68
2023/07/14 06:21:54;;;;;;;;;;;16.90;99.90;;;;;;5026140;28;19921;-68
2023/07/14 06:24:21;;;;;;;;;;;17.00;99.90;;;;;;5026857;28;19954;-68
2023/07/14 06:26:47;;;;;;;;;;;17.00;99.90;;;;;;5026470;28;19984;-68
2023/07/14 06:29:14;;;;;;;;;;;17.10;99.90;;;;;;5023526;28;19928;-68
2023/07/14 06:31:41;;;;;;;;;;;17.10;99.90;;;;;;5025864;28;19937;-68
2023/07/14 06:34:09;;;;;;;;;;;17.20;99.90;;;;;;5026497;28;19957;-68
2023/07/14 06:36:35;;;;;;;;;;;17.30;99.90;;;;;;5026009;28;20201;-68
2023/07/14 06:39:03;;;;;;;;;;;17.30;99.90;;;;;;5026423;28;19921;-68
2023/07/14 06:41:30;;;;;;;;;;;17.40;99.90;;;;;;5025440;28;20098;-68
2023/07/14 06:43:57;;;;;;;;;;;17.40;99.90;;;;;;5026164;28;19928;-68
2023/07/14 06:46:24;;;;;;;;;;;17.50;99.90;;;;;;5027270;28;19921;-68
2023/07/14 06:48:50;;;;;;;;;;;17.70;99.90;;;;;;5046224;28;19989;-68
2023/07/14 06:51:18;;;;;;;;;;;17.80;99.90;;;;;;5044942;28;19985;-68
2023/07/14 06:53:46;;;;;;;;;;;17.90;99.90;;;;;;5045957;28;19921;-68
2023/07/14 06:56:12;;;;;;;;;;;18.10;99.90;;;;;;5045491;28;19921;-68
2023/07/14 06:58:39;;;;;;;;;;;18.20;99.90;;;;;;5045901;28;19964;-68
2023/07/14 07:01:06;;;;;;;;;;;18.30;99.90;;;;;;5044802;28;20094;-68
2023/07/14 07:03:34;;;;;;;;;;;18.50;99.90;;;;;;5045733;28;19927;-68
2023/07/14 07:06:03;;;;;;;;;;;18.60;99.90;;;;;;5045616;28;19921;-69
2023/07/14 07:08:31;;;;;;;;;;;18.70;99.90;;;;;;5045454;28;19927;-68
2023/07/14 07:10:59;;;;;;;;;;;18.80;99.90;;;;;;5044985;28;19921;-68
2023/07/14 07:13:26;;;;;;;;;;;18.90;99.90;;;;;;5045719;28;19921;-69
2023/07/14 07:15:52;;;;;;;;;;;19.10;99.90;;;;;;5045420;28;19925;-68
2023/07/14 07:18:19;;;;;;;;;;;19.20;99.90;;;;;;5045145;28;19921;-68
2023/07/14 07:20:46;;;;;;;;;;;19.40;99.90;;;;;;5044733;28;19988;-69
2023/07/14 07:23:12;;;;;;;;;;;19.60;99.90;;;;;;5045343;28;19992;-68
2023/07/14 07:25:46;;;;;;;;;;;19.80;99.90;;;;;;5044708;28;20205;-69
2023/07/14 07:28:12;;;;;;;;;;;20.00;99.90;;;;;;5045338;28;20165;-68
2023/07/14 07:30:39;;;;;;;;;;;20.20;99.90;;;;;;5044372;28;20245;-68
2023/07/14 07:33:06;;;;;;;;;;;20.40;99.90;;;;;;5045114;28;19947;-68
2023/07/14 07:35:33;;;;;;;;;;;20.60;99.90;;;;;;5045020;28;19927;-68
2023/07/14 07:38:00;;;;;;;;;;;20.80;99.90;;;;;;5045040;28;20007;-68
2023/07/14 07:40:26;;;;;;;;;;;20.90;99.90;;;;;;5044244;28;19964;-68
2023/07/14 07:42:55;;;;;;;;;;;21.10;99.90;;;;;;5045020;28;19992;-71
2023/07/14 07:45:21;;;;;;;;;;;21.20;99.90;;;;;;5044833;28;19921;-68
2023/07/14 07:47:49;;;;;;;;;;;21.20;99.90;;;;;;5044910;28;20157;-68
2023/07/14 07:50:16;;;;;;;;;;;21.30;99.90;;;;;;5043818;28;20116;-68
2023/07/14 07:52:42;;;;;;;;;;;21.40;99.90;;;;;;5044779;28;19921;-68
2023/07/14 07:55:09;;;;;;;;;;;21.50;99.90;;;;;;5044466;28;19921;-68
2023/07/14 07:57:35;;;;;;;;;;;21.70;99.90;;;;;;5044516;28;20288;-68
2023/07/14 08:00:04;;;;;;;;;;;21.90;99.90;;;;;;5043738;28;19960;-68
2023/07/14 08:02:31;;;;;;;;;;;21.90;99.90;;;;;;5044573;28;19921;-68
2023/07/14 08:04:57;;;;;;;;;;;22.10;99.90;;;;;;5044386;28;19992;-69
2023/07/14 08:07:24;;;;;;;;;;;22.10;99.90;;;;;;5043897;28;19927;-69
2023/07/14 08:09:53;;;;;;;;;;;22.20;99.90;;;;;;5044178;28;19987;-69
2023/07/14 08:12:20;;;;;;;;;;;22.20;99.90;;;;;;5044212;28;20117;-68
2023/07/14 08:14:50;;;;;;;;;;;22.20;99.90;;;;;;5044610;28;19953;-68
2023/07/14 08:17:18;;;;;;;;;;;22.20;99.90;;;;;;5044737;28;19943;-68
2023/07/14 08:19:46;;;;;;;;;;;22.20;99.90;;;;;;5044784;28;19921;-69
2023/07/14 08:22:12;;;;;;;;;;;22.30;99.90;;;;;;5043415;28;19921;-69
2023/07/14 08:24:39;;;;;;;;;;;22.30;99.90;;;;;;5043852;28;19987;-68
2023/07/14 08:27:06;;;;;;;;;;;22.40;99.90;;;;;;5040391;28;19935;-69
2023/07/14 08:29:33;;;;;;;;;;;22.50;99.90;;;;;;5035053;28;19929;-69
2023/07/14 08:31:59;;;;;;;;;;;22.50;99.90;;;;;;5043060;28;20284;-69
2023/07/14 08:34:29;;;;;;;;;;;22.50;99.90;;;;;;5041317;28;19988;-68
2023/07/14 08:36:56;;;;;;;;;;;22.60;99.90;;;;;;5043595;28;20110;-69
2023/07/14 08:39:24;;;;;;;;;;;22.70;99.90;;;;;;5040750;28;19929;-69
2023/07/14 08:41:53;;;;;;;;;;;22.80;99.90;;;;;;5043178;28;19984;-68
2023/07/14 08:44:32;;;;;;;;;;;22.90;99.90;;;;;;5043976;28;19949;-68
2023/07/14 08:47:03;;;;;;;;;;;22.90;99.90;;;;;;5043388;28;19921;-68
2023/07/14 08:49:32;;;;;;;;;;;23.00;99.90;;;;;;5041863;28;19987;-68
2023/07/14 08:52:01;;;;;;;;;;;23.00;99.90;;;;;;5022974;28;19928;-69
2023/07/14 08:54:29;;;;;;;;;;;23.10;99.90;;;;;;5028968;28;19963;-68
2023/07/14 08:56:56;;;;;;;;;;;23.20;99.90;;;;;;5031513;28;19921;-68
2023/07/14 08:59:28;;;;;;;;;;;23.40;99.90;;;;;;5043621;28;19921;-68
2023/07/14 09:01:56;;;;;;;;;;;23.40;99.90;;;;;;5038585;28;20220;-69
2023/07/14 09:04:24;;;;;;;;;;;23.30;99.90;;;;;;5019965;28;19929;-70
2023/07/14 09:06:52;;;;;;;;;;;23.30;99.90;;;;;;5042722;28;19921;-69
2023/07/14 09:09:19;;;;;;;;;;;23.30;99.90;;;;;;5042798;28;20242;-68
2023/07/14 09:11:49;;;;;;;;;;;23.30;99.90;;;;;;5042395;28;19992;-68
2023/07/14 09:14:24;;;;;;;;;;;23.30;99.90;;;;;;5041735;28;19935;-68
2023/07/14 09:16:54;;;;;;;;;;;23.30;99.90;;;;;;5038852;28;19984;-68
2023/07/14 09:19:27;;;;;;;;;;;23.40;99.90;;;;;;5029714;28;20230;-68
2023/07/14 09:21:59;;;;;;;;;;;23.40;99.90;;;;;;5041571;28;20098;-68
2023/07/14 09:24:31;;;;;;;;;;;23.50;99.90;;;;;;5031355;28;19980;-68
2023/07/14 09:26:57;;;;;;;;;;;23.60;99.90;;;;;;5041214;28;19952;-68
2023/07/14 09:29:31;;;;;;;;;;;23.60;99.90;;;;;;5037994;28;19921;-68
2023/07/14 09:32:01;;;;;;;;;;;23.80;99.90;;;;;;5033412;28;19929;-67
2023/07/14 09:34:30;;;;;;;;;;;24.00;99.90;;;;;;5037533;28;19984;-67
2023/07/14 09:36:59;;;;;;;;;;;24.20;99.90;;;;;;5040435;28;19937;-68
2023/07/14 09:39:30;;;;;;;;;;;24.30;99.90;;;;;;5041845;28;20235;-68
2023/07/14 09:41:58;;;;;;;;;;;24.40;99.90;;;;;;5042385;28;19921;-68
2023/07/14 09:44:26;;;;;;;;;;;24.50;99.90;;;;;;5042088;28;19928;-67
2023/07/14 09:46:54;;;;;;;;;;;24.60;99.90;;;;;;5041686;28;19921;-67
2023/07/14 09:49:33;;;;;;;;;;;24.70;99.90;;;;;;5042341;28;19960;-67
2023/07/14 09:55:00;;;;;;;;;;;24.90;99.90;;;;;;5149500;27;19943;-68
2023/07/14 09:57:28;;;;;;;;;;;25.00;99.80;;;;;;5129343;27;19926;-68
2023/07/14 09:59:56;;;;;;;;;;;25.10;99.90;;;;;;5125687;28;19920;-68
2023/07/14 10:02:26;;;;;;;;;;;25.20;99.90;;;;;;5128306;28;19920;-68
2023/07/14 10:04:56;;;;;;;;;;;25.30;99.70;;;;;;5100610;28;19920;-68
2023/07/14 10:07:31;;;;;;;;;;;25.30;98.50;;;;;;5100945;28;19920;-68
2023/07/14 10:10:00;;;;;;;;;;;25.30;98.70;;;;;;5114578;28;19986;-68
2023/07/14 10:12:34;;;;;;;;;;;25.30;99.10;;;;;;5123360;28;20171;-68
2023/07/14 10:15:01;;;;;;;;;;;25.30;98.40;;;;;;5115477;28;19986;-68
2023/07/14 10:17:28;;;;;;;;;;;25.40;97.80;;;;;;5102233;28;20142;-68
2023/07/14 10:19:56;;;;;;;;;;;25.40;98.30;;;;;;5140985;27;19919;-68
2023/07/14 10:22:24;;;;;;;;;;;25.40;98.00;;;;;;5125102;27;19979;-68
2023/07/14 10:24:55;;;;;;;;;;;25.50;97.20;;;;;;5120295;27;19989;-68
2023/07/14 10:27:26;;;;;;;;;;;25.50;97.90;;;;;;5114025;28;19920;-68
2023/07/14 10:30:11;;;;;;;;;;;25.70;98.00;;;;;;5100205;28;20171;-68
2023/07/14 10:32:40;;;;;;;;;;;25.80;97.50;;;;;;5103276;28;19920;-67
2023/07/14 10:35:13;;;;;;;;;;;25.90;97.40;;;;;;5122323;28;19925;-68
2023/07/14 10:37:42;;;;;;;;;;;26.00;97.20;;;;;;5141168;27;19968;-68
2023/07/14 10:40:14;;;;;;;;;;;26.00;96.40;;;;;;5137825;27;19991;-68
2023/07/14 10:42:48;;;;;;;;;;;26.10;96.90;;;;;;5126119;27;19920;-67
2023/07/14 10:45:15;;;;;;;;;;;26.20;96.50;;;;;;5120429;28;19952;-68
2023/07/14 10:47:47;;;;;;;;;;;26.20;96.50;;;;;;5123729;28;19920;-68
2023/07/14 10:50:17;;;;;;;;;;;26.20;96.70;;;;;;5099557;28;19990;-68
2023/07/14 10:52:46;;;;;;;;;;;26.20;96.50;;;;;;5134940;27;19947;-68
2023/07/14 10:55:15;;;;;;;;;;;26.50;96.30;;;;;;5128670;27;19919;-68
2023/07/14 10:57:47;;;;;;;;;;;26.60;95.60;;;;;;5140896;28;19927;-68
2023/07/14 11:00:25;;;;;;;;;;;26.80;95.90;;;;;;5139965;28;19990;-67
2023/07/14 11:02:57;;;;;;;;;;;27.10;94.70;;;;;;5140831;28;19920;-68
2023/07/14 11:05:25;;;;;;;;;;;27.10;94.60;;;;;;5132056;28;19926;-68
2023/07/14 11:07:55;;;;;;;;;;;27.20;94.60;;;;;;5126739;28;20263;-67
2023/07/14 11:10:29;;;;;;;;;;;27.20;93.50;;;;;;5126065;28;20207;-67
2023/07/14 11:13:01;;;;;;;;;;;27.20;93.20;;;;;;5126798;28;19942;-67
2023/07/14 11:15:36;;;;;;;;;;;27.30;94.50;;;;;;5126742;28;19969;-68
2023/07/14 11:18:08;;;;;;;;;;;27.40;93.30;;;;;;5126816;28;20150;-68
2023/07/14 11:20:37;;;;;;;;;;;27.40;93.60;;;;;;5126097;28;19969;-67
2023/07/14 11:23:09;;;;;;;;;;;27.50;93.00;;;;;;5126700;28;19947;-67
2023/07/14 11:25:40;;;;;;;;;;;27.50;92.50;;;;;;5126224;28;19920;-67
2023/07/14 11:28:17;;;;;;;;;;;27.40;92.00;;;;;;5126384;28;20146;-69
2023/07/14 11:30:46;;;;;;;;;;;27.40;92.40;;;;;;5125893;28;19926;-66
2023/07/14 11:33:16;;;;;;;;;;;27.40;91.60;;;;;;5126230;28;19951;-67
2023/07/14 11:35:48;;;;;;;;;;;27.40;91.40;;;;;;5123012;28;20203;-67
2023/07/14 11:38:17;;;;;;;;;;;27.40;92.20;;;;;;5125528;28;19919;-67
2023/07/14 11:40:46;;;;;;;;;;;27.40;92.10;;;;;;5125199;28;19926;-67
2023/07/14 11:43:17;;;;;;;;;;;27.40;92.40;;;;;;5126213;28;20123;-67
2023/07/14 11:45:47;;;;;;;;;;;27.40;92.70;;;;;;5108781;28;19969;-67
2023/07/14 11:48:21;;;;;;;;;;;27.50;91.80;;;;;;5105630;28;19920;-69
2023/07/14 11:51:02;;;;;;;;;;;27.50;92.10;;;;;;5104967;28;19920;-68
2023/07/14 11:53:32;;;;;;;;;;;27.50;91.30;;;;;;5105122;28;20236;-67
2023/07/14 11:56:13;;;;;;;;;;;27.40;91.20;;;;;;5105422;28;19983;-67
2023/07/14 11:58:41;;;;;;;;;;;27.40;90.70;;;;;;5105701;28;19920;-67
2023/07/14 12:01:14;;;;;;;;;;;27.40;91.30;;;;;;5104940;28;19956;-68
2023/07/14 12:03:47;;;;;;;;;;;27.50;92.90;;;;;;5105513;28;19920;-67
2023/07/14 12:06:22;;;;;;;;;;;27.50;91.80;;;;;;5104901;28;19942;-68
2023/07/14 12:08:59;;;;;;;;;;;27.70;91.40;;;;;;5105411;28;19920;-67
2023/07/14 12:11:26;;;;;;;;;;;27.70;91.30;;;;;;5104737;28;19920;-67
2023/07/14 12:13:54;;;;;;;;;;;27.80;91.90;;;;;;5105557;28;19920;-67
2023/07/14 12:16:24;;;;;;;;;;;27.90;90.50;;;;;;5104155;28;20163;-67
2023/07/14 12:19:02;;;;;;;;;;;28.00;91.70;;;;;;5105078;28;19966;-67
2023/07/14 12:21:33;;;;;;;;;;;28.10;91.50;;;;;;5104085;28;19924;-67
2023/07/14 12:24:01;;;;;;;;;;;28.10;90.20;;;;;;5105041;28;19961;-67
2023/07/14 12:26:32;;;;;;;;;;;28.20;89.80;;;;;;5104521;28;20200;-67
2023/07/14 12:29:02;;;;;;;;;;;28.20;90.00;;;;;;5105008;28;19920;-70
2023/07/14 12:31:34;;;;;;;;;;;28.20;90.60;;;;;;5104284;28;19920;-68
2023/07/14 12:34:03;;;;;;;;;;;28.20;90.50;;;;;;5102090;28;19987;-66
2023/07/14 12:36:31;;;;;;;;;;;28.30;90.10;;;;;;5104582;28;19927;-69
2023/07/14 12:38:58;;;;;;;;;;;28.20;89.70;;;;;;5104873;28;19987;-67
2023/07/14 12:41:26;;;;;;;;;;;28.30;89.50;;;;;;5103979;28;19920;-68
2023/07/14 12:43:54;;;;;;;;;;;28.20;90.00;;;;;;5105694;28;19920;-67
2023/07/14 12:46:24;;;;;;;;;;;28.20;90.30;;;;;;5124830;28;19947;-70
2023/07/14 12:48:57;;;;;;;;;;;28.10;88.80;;;;;;5124865;28;19924;-67
2023/07/14 12:51:24;;;;;;;;;;;28.10;90.20;;;;;;5124089;28;20203;-68
2023/07/14 12:53:56;;;;;;;;;;;28.10;88.50;;;;;;5124419;28;20118;-68
2023/07/14 12:56:23;;;;;;;;;;;28.00;89.20;;;;;;5124379;28;20279;-67
2023/07/14 12:58:52;;;;;;;;;;;27.90;89.40;;;;;;5124823;28;19923;-66
2023/07/14 13:01:20;;;;;;;;;;;27.90;88.90;;;;;;5124050;28;19927;-67
2023/07/14 13:03:48;;;;;;;;;;;27.80;86.40;;;;;;5124657;28;19951;-68
2023/07/14 13:06:16;;;;;;;;;;;27.90;86.80;;;;;;5124277;28;19920;-67
2023/07/14 13:08:45;;;;;;;;;;;27.80;87.20;;;;;;5124569;28;19920;-68
2023/07/14 13:11:14;;;;;;;;;;;27.80;88.80;;;;;;5123884;28;19962;-68
2023/07/14 13:13:44;;;;;;;;;;;27.90;89.10;;;;;;5123489;28;20230;-67
2023/07/14 13:16:11;;;;;;;;;;;27.90;89.60;;;;;;5123570;28;19924;-68
2023/07/14 13:18:38;;;;;;;;;;;28.00;90.00;;;;;;5123286;28;19987;-69
2023/07/14 13:21:26;;;;;;;;;;;28.00;87.10;;;;;;5123702;28;19926;-67
2023/07/14 13:23:56;;;;;;;;;;;28.00;86.70;;;;;;5123976;28;19927;-68
2023/07/14 13:26:23;;;;;;;;;;;28.00;87.00;;;;;;5116817;28;19983;-68
2023/07/14 13:28:56;;;;;;;;;;;28.20;86.80;;;;;;5114858;28;19949;-67
2023/07/14 13:31:28;;;;;;;;;;;28.50;86.50;;;;;;5112076;28;20237;-67
2023/07/14 13:33:56;;;;;;;;;;;28.90;89.10;;;;;;5101422;28;19943;-67
2023/07/14 13:36:23;;;;;;;;;;;29.50;86.50;;;;;;5103637;28;19924;-68
2023/07/14 13:38:50;;;;;;;;;;;29.80;84.20;;;;;;5102766;28;19983;-68
2023/07/14 13:41:19;;;;;;;;;;;29.90;81.50;;;;;;5102810;28;19927;-66
2023/07/14 13:43:48;;;;;;;;;;;29.90;84.60;;;;;;5110747;28;19942;-70
2023/07/14 13:46:16;;;;;;;;;;;29.80;81.40;;;;;;5123944;28;19920;-68
2023/07/14 13:48:44;;;;;;;;;;;29.70;81.30;;;;;;5123909;28;19926;-67
2023/07/14 13:51:27;;;;;;;;;;;29.70;79.50;;;;;;5122178;28;19962;-68
2023/07/14 13:53:53;;;;;;;;;;;29.80;79.80;;;;;;5123733;28;19955;-69
2023/07/14 13:56:24;;;;;;;;;;;30.00;79.20;;;;;;5121558;28;19951;-67
2023/07/14 13:58:51;;;;;;;;;;;30.00;78.90;;;;;;5124033;28;20139;-69
2023/07/14 14:01:19;;;;;;;;;;;29.80;77.00;;;;;;5122551;28;19919;-67
2023/07/14 14:03:48;;;;;;;;;;;29.90;78.70;;;;;;5121232;28;20088;-68
2023/07/14 14:06:15;;;;;;;;;;;29.80;76.80;;;;;;5123438;28;19919;-67
2023/07/14 14:08:41;;;;;;;;;;;29.90;77.50;;;;;;5123972;28;19987;-68
2023/07/14 14:11:08;;;;;;;;;;;29.90;78.40;;;;;;5123370;28;19920;-66
2023/07/14 14:13:38;;;;;;;;;;;29.80;78.00;;;;;;5123546;28;20114;-67
2023/07/14 14:16:06;;;;;;;;;;;29.80;77.60;;;;;;5123679;28;19919;-68
2023/07/14 14:18:34;;;;;;;;;;;30.00;78.30;;;;;;5123734;28;19973;-67
2023/07/14 14:21:01;;;;;;;;;;;30.30;79.50;;;;;;5123075;28;19979;-69
2023/07/14 14:23:29;;;;;;;;;;;30.60;78.70;;;;;;5124289;28;19984;-69
2023/07/14 14:25:56;;;;;;;;;;;31.00;79.20;;;;;;5124327;28;19983;-69
2023/07/14 14:28:23;;;;;;;;;;;31.30;75.60;;;;;;5124007;28;19920;-69